sensor_id;sensor_type;location;lat;lon;timestamp;P1;durP1;ratioP1;P2;durP2;ratioP2
5303;SDS011;2674;49.722;10.892;2023-05-07T00:00:36;12.73;;;3.30;;
5303;SDS011;2674;49.722;10.892;2023-05-07T00:03:02;3.57;;;3.33;;
5303;SDS011;2674;49.722;10.892;2023-05-07T00:05:28;3.30;;;2.90;;
5303;SDS011;2674;49.722;10.892;2023-05-07T00:07:54;3.50;;;2.80;;
5303;SDS011;2674;49.722;10.892;2023-05-07T00:10:20;2.27;;;2.10;;
5303;SDS011;2674;49.722;10.892;2023-05-07T00:12:46;4.13;;;2.57;;
5303;SDS011;2674;49.722;10.892;2023-05-07T00:15:12;5.43;;;2.60;;
5303;SDS011;2674;49.722;10.892;2023-05-07T00:17:37;3.40;;;2.93;;
5303;SDS011;2674;49.722;10.892;2023-05-07T00:20:04;5.43;;;2.60;;
5303;SDS011;2674;49.722;10.892;2023-05-07T00:22:30;4.97;;;2.57;;
5303;SDS011;2674;49.722;10.892;2023-05-07T00:24:57;6.30;;;2.60;;
5303;SDS011;2674;49.722;10.892;2023-05-07T00:27:24;5.20;;;2.40;;
5303;SDS011;2674;49.722;10.892;2023-05-07T00:29:50;3.47;;;2.50;;
5303;SDS011;2674;49.722;10.892;2023-05-07T00:32:16;6.73;;;2.83;;
5303;SDS011;2674;49.722;10.892;2023-05-07T00:34:42;6.23;;;2.13;;
5303;SDS011;2674;49.722;10.892;2023-05-07T00:37:08;3.60;;;2.63;;
5303;SDS011;2674;49.722;10.892;2023-05-07T00:39:34;2.47;;;2.27;;
5303;SDS011;2674;49.722;10.892;2023-05-07T00:42:00;3.10;;;2.40;;
5303;SDS011;2674;49.722;10.892;2023-05-07T00:44:27;2.90;;;2.30;;
5303;SDS011;2674;49.722;10.892;2023-05-07T00:46:54;3.30;;;3.00;;
5303;SDS011;2674;49.722;10.892;2023-05-07T00:49:22;3.07;;;2.77;;
5303;SDS011;2674;49.722;10.892;2023-05-07T00:51:54;4.17;;;3.13;;
5303;SDS011;2674;49.722;10.892;2023-05-07T00:54:21;3.23;;;3.03;;
5303;SDS011;2674;49.722;10.892;2023-05-07T00:56:47;6.20;;;2.93;;
5303;SDS011;2674;49.722;10.892;2023-05-07T00:59:13;3.10;;;2.90;;
5303;SDS011;2674;49.722;10.892;2023-05-07T01:01:39;3.80;;;2.50;;
5303;SDS011;2674;49.722;10.892;2023-05-07T01:04:04;3.83;;;3.10;;
5303;SDS011;2674;49.722;10.892;2023-05-07T01:06:30;3.90;;;2.63;;
5303;SDS011;2674;49.722;10.892;2023-05-07T01:08:58;3.17;;;2.97;;
5303;SDS011;2674;49.722;10.892;2023-05-07T01:11:25;7.00;;;2.87;;
5303;SDS011;2674;49.722;10.892;2023-05-07T01:13:51;4.87;;;2.70;;
5303;SDS011;2674;49.722;10.892;2023-05-07T01:16:17;2.90;;;2.70;;
5303;SDS011;2674;49.722;10.892;2023-05-07T01:18:43;4.10;;;3.27;;
5303;SDS011;2674;49.722;10.892;2023-05-07T01:21:14;4.47;;;3.20;;
5303;SDS011;2674;49.722;10.892;2023-05-07T01:23:42;3.27;;;2.50;;
5303;SDS011;2674;49.722;10.892;2023-05-07T01:26:09;3.57;;;2.70;;
5303;SDS011;2674;49.722;10.892;2023-05-07T01:28:35;3.33;;;2.37;;
5303;SDS011;2674;49.722;10.892;2023-05-07T01:31:01;3.10;;;2.70;;
5303;SDS011;2674;49.722;10.892;2023-05-07T01:33:29;5.47;;;3.10;;
5303;SDS011;2674;49.722;10.892;2023-05-07T01:35:58;2.80;;;2.60;;
5303;SDS011;2674;49.722;10.892;2023-05-07T01:38:27;3.57;;;2.70;;
5303;SDS011;2674;49.722;10.892;2023-05-07T01:40:53;2.77;;;2.57;;
5303;SDS011;2674;49.722;10.892;2023-05-07T01:43:19;3.07;;;2.87;;
5303;SDS011;2674;49.722;10.892;2023-05-07T01:45:45;5.90;;;3.07;;
5303;SDS011;2674;49.722;10.892;2023-05-07T01:48:14;6.60;;;3.70;;
5303;SDS011;2674;49.722;10.892;2023-05-07T01:50:40;3.67;;;2.60;;
5303;SDS011;2674;49.722;10.892;2023-05-07T01:53:07;4.27;;;3.87;;
5303;SDS011;2674;49.722;10.892;2023-05-07T01:55:33;8.23;;;3.23;;
5303;SDS011;2674;49.722;10.892;2023-05-07T01:58:01;3.63;;;3.13;;
5303;SDS011;2674;49.722;10.892;2023-05-07T02:00:27;3.07;;;2.83;;
5303;SDS011;2674;49.722;10.892;2023-05-07T02:02:54;3.30;;;2.90;;
5303;SDS011;2674;49.722;10.892;2023-05-07T02:05:19;3.40;;;3.10;;
5303;SDS011;2674;49.722;10.892;2023-05-07T02:07:46;3.50;;;3.20;;
5303;SDS011;2674;49.722;10.892;2023-05-07T02:10:11;7.10;;;3.87;;
5303;SDS011;2674;49.722;10.892;2023-05-07T02:12:40;3.37;;;3.17;;
5303;SDS011;2674;49.722;10.892;2023-05-07T02:15:06;3.60;;;3.40;;
5303;SDS011;2674;49.722;10.892;2023-05-07T02:17:32;3.63;;;3.33;;
5303;SDS011;2674;49.722;10.892;2023-05-07T02:19:58;4.03;;;3.67;;
5303;SDS011;2674;49.722;10.892;2023-05-07T02:22:24;5.30;;;4.00;;
5303;SDS011;2674;49.722;10.892;2023-05-07T02:24:50;5.03;;;3.83;;
5303;SDS011;2674;49.722;10.892;2023-05-07T02:27:16;3.20;;;3.00;;
5303;SDS011;2674;49.722;10.892;2023-05-07T02:29:42;5.60;;;3.70;;
5303;SDS011;2674;49.722;10.892;2023-05-07T02:32:08;6.60;;;3.67;;
5303;SDS011;2674;49.722;10.892;2023-05-07T02:34:33;5.03;;;3.40;;
5303;SDS011;2674;49.722;10.892;2023-05-07T02:36:59;3.90;;;3.60;;
5303;SDS011;2674;49.722;10.892;2023-05-07T02:39:25;3.50;;;3.20;;
5303;SDS011;2674;49.722;10.892;2023-05-07T02:41:51;5.10;;;4.20;;
5303;SDS011;2674;49.722;10.892;2023-05-07T02:44:16;3.60;;;3.30;;
5303;SDS011;2674;49.722;10.892;2023-05-07T02:46:42;5.63;;;4.70;;
5303;SDS011;2674;49.722;10.892;2023-05-07T02:49:08;3.53;;;3.23;;
5303;SDS011;2674;49.722;10.892;2023-05-07T02:51:34;4.70;;;3.77;;
5303;SDS011;2674;49.722;10.892;2023-05-07T02:54:00;4.23;;;3.83;;
5303;SDS011;2674;49.722;10.892;2023-05-07T02:56:26;4.50;;;3.80;;
5303;SDS011;2674;49.722;10.892;2023-05-07T02:58:52;5.13;;;3.60;;
5303;SDS011;2674;49.722;10.892;2023-05-07T03:01:18;4.40;;;4.00;;
5303;SDS011;2674;49.722;10.892;2023-05-07T03:03:44;4.67;;;3.30;;
5303;SDS011;2674;49.722;10.892;2023-05-07T03:06:12;3.87;;;3.57;;
5303;SDS011;2674;49.722;10.892;2023-05-07T03:08:38;5.13;;;3.90;;
5303;SDS011;2674;49.722;10.892;2023-05-07T03:11:04;5.43;;;3.73;;
5303;SDS011;2674;49.722;10.892;2023-05-07T03:13:30;3.40;;;3.10;;
5303;SDS011;2674;49.722;10.892;2023-05-07T03:15:56;4.00;;;3.67;;
5303;SDS011;2674;49.722;10.892;2023-05-07T03:18:21;3.77;;;3.43;;
5303;SDS011;2674;49.722;10.892;2023-05-07T03:20:48;4.83;;;3.63;;
5303;SDS011;2674;49.722;10.892;2023-05-07T03:23:13;5.50;;;3.83;;
5303;SDS011;2674;49.722;10.892;2023-05-07T03:25:39;4.40;;;4.10;;
5303;SDS011;2674;49.722;10.892;2023-05-07T03:28:05;4.83;;;4.47;;
5303;SDS011;2674;49.722;10.892;2023-05-07T03:30:31;4.90;;;4.50;;
5303;SDS011;2674;49.722;10.892;2023-05-07T03:32:57;8.90;;;4.40;;
5303;SDS011;2674;49.722;10.892;2023-05-07T03:35:22;4.73;;;4.17;;
5303;SDS011;2674;49.722;10.892;2023-05-07T03:37:48;4.40;;;4.10;;
5303;SDS011;2674;49.722;10.892;2023-05-07T03:40:14;6.77;;;5.13;;
5303;SDS011;2674;49.722;10.892;2023-05-07T03:42:40;6.80;;;5.30;;
5303;SDS011;2674;49.722;10.892;2023-05-07T03:45:06;6.43;;;5.17;;
5303;SDS011;2674;49.722;10.892;2023-05-07T03:47:32;5.73;;;5.23;;
5303;SDS011;2674;49.722;10.892;2023-05-07T03:49:58;6.50;;;5.93;;
5303;SDS011;2674;49.722;10.892;2023-05-07T03:52:24;6.27;;;5.67;;
5303;SDS011;2674;49.722;10.892;2023-05-07T03:54:51;8.03;;;6.67;;
5303;SDS011;2674;49.722;10.892;2023-05-07T03:57:18;9.93;;;5.87;;
5303;SDS011;2674;49.722;10.892;2023-05-07T03:59:44;6.13;;;5.53;;
5303;SDS011;2674;49.722;10.892;2023-05-07T04:02:10;8.50;;;6.77;;
5303;SDS011;2674;49.722;10.892;2023-05-07T04:04:36;7.90;;;6.90;;
5303;SDS011;2674;49.722;10.892;2023-05-07T04:07:01;7.10;;;5.30;;
5303;SDS011;2674;49.722;10.892;2023-05-07T04:09:28;5.97;;;5.37;;
5303;SDS011;2674;49.722;10.892;2023-05-07T04:11:53;7.47;;;5.80;;
5303;SDS011;2674;49.722;10.892;2023-05-07T04:14:19;5.97;;;5.47;;
5303;SDS011;2674;49.722;10.892;2023-05-07T04:16:45;5.90;;;5.30;;
5303;SDS011;2674;49.722;10.892;2023-05-07T04:19:11;5.60;;;5.00;;
5303;SDS011;2674;49.722;10.892;2023-05-07T04:21:37;5.27;;;4.80;;
5303;SDS011;2674;49.722;10.892;2023-05-07T04:24:03;6.20;;;5.20;;
5303;SDS011;2674;49.722;10.892;2023-05-07T04:26:29;6.30;;;5.13;;
5303;SDS011;2674;49.722;10.892;2023-05-07T04:28:55;5.57;;;5.07;;
5303;SDS011;2674;49.722;10.892;2023-05-07T04:31:21;6.30;;;4.93;;
5303;SDS011;2674;49.722;10.892;2023-05-07T04:33:47;7.40;;;5.20;;
5303;SDS011;2674;49.722;10.892;2023-05-07T04:36:13;5.77;;;5.27;;
5303;SDS011;2674;49.722;10.892;2023-05-07T04:38:39;7.83;;;5.50;;
5303;SDS011;2674;49.722;10.892;2023-05-07T04:41:05;6.83;;;5.13;;
5303;SDS011;2674;49.722;10.892;2023-05-07T04:43:31;15.80;;;5.83;;
5303;SDS011;2674;49.722;10.892;2023-05-07T04:45:58;5.97;;;5.40;;
5303;SDS011;2674;49.722;10.892;2023-05-07T04:48:23;6.43;;;5.60;;
5303;SDS011;2674;49.722;10.892;2023-05-07T04:50:52;8.13;;;5.67;;
5303;SDS011;2674;49.722;10.892;2023-05-07T04:53:19;6.87;;;5.40;;
5303;SDS011;2674;49.722;10.892;2023-05-07T04:55:46;6.63;;;5.77;;
5303;SDS011;2674;49.722;10.892;2023-05-07T04:58:12;6.63;;;5.90;;
5303;SDS011;2674;49.722;10.892;2023-05-07T05:00:38;6.87;;;6.13;;
5303;SDS011;2674;49.722;10.892;2023-05-07T05:03:04;10.10;;;6.77;;
5303;SDS011;2674;49.722;10.892;2023-05-07T05:05:33;6.20;;;5.60;;
5303;SDS011;2674;49.722;10.892;2023-05-07T05:07:59;8.30;;;6.10;;
5303;SDS011;2674;49.722;10.892;2023-05-07T05:10:24;7.07;;;5.87;;
5303;SDS011;2674;49.722;10.892;2023-05-07T05:12:50;5.80;;;5.30;;
5303;SDS011;2674;49.722;10.892;2023-05-07T05:15:16;7.33;;;5.83;;
5303;SDS011;2674;49.722;10.892;2023-05-07T05:17:42;6.60;;;6.00;;
5303;SDS011;2674;49.722;10.892;2023-05-07T05:20:08;5.87;;;5.23;;
5303;SDS011;2674;49.722;10.892;2023-05-07T05:22:35;7.53;;;5.90;;
5303;SDS011;2674;49.722;10.892;2023-05-07T05:25:01;9.00;;;6.33;;
5303;SDS011;2674;49.722;10.892;2023-05-07T05:27:27;7.80;;;6.67;;
5303;SDS011;2674;49.722;10.892;2023-05-07T05:29:54;6.53;;;5.93;;
5303;SDS011;2674;49.722;10.892;2023-05-07T05:32:20;7.77;;;7.03;;
5303;SDS011;2674;49.722;10.892;2023-05-07T05:34:46;7.40;;;6.43;;
5303;SDS011;2674;49.722;10.892;2023-05-07T05:37:11;8.00;;;6.77;;
5303;SDS011;2674;49.722;10.892;2023-05-07T05:39:37;7.87;;;6.70;;
5303;SDS011;2674;49.722;10.892;2023-05-07T05:42:03;10.37;;;6.70;;
5303;SDS011;2674;49.722;10.892;2023-05-07T05:44:29;12.43;;;7.60;;
5303;SDS011;2674;49.722;10.892;2023-05-07T05:46:55;8.10;;;6.83;;
5303;SDS011;2674;49.722;10.892;2023-05-07T05:49:22;9.37;;;6.50;;
5303;SDS011;2674;49.722;10.892;2023-05-07T05:51:48;9.57;;;7.60;;
5303;SDS011;2674;49.722;10.892;2023-05-07T05:54:14;8.13;;;6.43;;
5303;SDS011;2674;49.722;10.892;2023-05-07T05:56:40;7.60;;;6.87;;
5303;SDS011;2674;49.722;10.892;2023-05-07T05:59:06;8.00;;;7.17;;
5303;SDS011;2674;49.722;10.892;2023-05-07T06:01:32;9.53;;;7.80;;
5303;SDS011;2674;49.722;10.892;2023-05-07T06:03:58;9.43;;;7.80;;
5303;SDS011;2674;49.722;10.892;2023-05-07T06:06:24;9.67;;;7.73;;
5303;SDS011;2674;49.722;10.892;2023-05-07T06:08:50;7.93;;;7.13;;
5303;SDS011;2674;49.722;10.892;2023-05-07T06:11:16;8.40;;;7.20;;
5303;SDS011;2674;49.722;10.892;2023-05-07T06:13:42;7.90;;;6.90;;
5303;SDS011;2674;49.722;10.892;2023-05-07T06:16:08;9.30;;;6.73;;
5303;SDS011;2674;49.722;10.892;2023-05-07T06:18:34;13.37;;;7.63;;
5303;SDS011;2674;49.722;10.892;2023-05-07T06:21:01;7.63;;;6.83;;
5303;SDS011;2674;49.722;10.892;2023-05-07T06:23:27;8.43;;;6.70;;
5303;SDS011;2674;49.722;10.892;2023-05-07T06:25:53;8.67;;;7.60;;
5303;SDS011;2674;49.722;10.892;2023-05-07T06:28:19;10.60;;;7.60;;
5303;SDS011;2674;49.722;10.892;2023-05-07T06:30:45;7.73;;;6.33;;
5303;SDS011;2674;49.722;10.892;2023-05-07T06:33:11;8.73;;;7.57;;
5303;SDS011;2674;49.722;10.892;2023-05-07T06:35:36;14.17;;;7.90;;
5303;SDS011;2674;49.722;10.892;2023-05-07T06:38:02;8.37;;;7.17;;
5303;SDS011;2674;49.722;10.892;2023-05-07T06:40:28;8.20;;;7.40;;
5303;SDS011;2674;49.722;10.892;2023-05-07T06:42:54;8.47;;;7.13;;
5303;SDS011;2674;49.722;10.892;2023-05-07T06:45:20;7.20;;;6.27;;
5303;SDS011;2674;49.722;10.892;2023-05-07T06:47:46;7.93;;;7.13;;
5303;SDS011;2674;49.722;10.892;2023-05-07T06:50:11;9.30;;;7.60;;
5303;SDS011;2674;49.722;10.892;2023-05-07T06:52:37;10.70;;;7.80;;
5303;SDS011;2674;49.722;10.892;2023-05-07T06:55:03;8.30;;;7.50;;
5303;SDS011;2674;49.722;10.892;2023-05-07T06:57:30;8.30;;;6.90;;
5303;SDS011;2674;49.722;10.892;2023-05-07T06:59:56;11.63;;;7.10;;
5303;SDS011;2674;49.722;10.892;2023-05-07T07:02:21;9.47;;;6.53;;
5303;SDS011;2674;49.722;10.892;2023-05-07T07:04:47;9.53;;;7.20;;
5303;SDS011;2674;49.722;10.892;2023-05-07T07:07:13;9.27;;;7.40;;
5303;SDS011;2674;49.722;10.892;2023-05-07T07:09:39;9.67;;;7.13;;
5303;SDS011;2674;49.722;10.892;2023-05-07T07:12:05;12.33;;;7.93;;
5303;SDS011;2674;49.722;10.892;2023-05-07T07:14:31;7.73;;;6.40;;
5303;SDS011;2674;49.722;10.892;2023-05-07T07:16:56;8.90;;;6.70;;
5303;SDS011;2674;49.722;10.892;2023-05-07T07:19:22;8.03;;;7.00;;
5303;SDS011;2674;49.722;10.892;2023-05-07T07:21:48;8.27;;;6.90;;
5303;SDS011;2674;49.722;10.892;2023-05-07T07:24:14;7.23;;;6.40;;
5303;SDS011;2674;49.722;10.892;2023-05-07T07:26:44;13.23;;;7.03;;
5303;SDS011;2674;49.722;10.892;2023-05-07T07:29:13;8.80;;;6.87;;
5303;SDS011;2674;49.722;10.892;2023-05-07T07:31:40;9.67;;;6.90;;
5303;SDS011;2674;49.722;10.892;2023-05-07T07:34:06;9.40;;;7.93;;
5303;SDS011;2674;49.722;10.892;2023-05-07T07:36:31;6.50;;;5.90;;
5303;SDS011;2674;49.722;10.892;2023-05-07T07:38:57;8.20;;;6.60;;
5303;SDS011;2674;49.722;10.892;2023-05-07T07:41:23;10.87;;;6.20;;
5303;SDS011;2674;49.722;10.892;2023-05-07T07:43:49;7.43;;;6.50;;
5303;SDS011;2674;49.722;10.892;2023-05-07T07:46:15;9.20;;;5.93;;
5303;SDS011;2674;49.722;10.892;2023-05-07T07:48:41;6.50;;;5.87;;
5303;SDS011;2674;49.722;10.892;2023-05-07T07:51:06;8.80;;;6.77;;
5303;SDS011;2674;49.722;10.892;2023-05-07T07:53:33;7.90;;;6.40;;
5303;SDS011;2674;49.722;10.892;2023-05-07T07:55:58;7.03;;;6.37;;
5303;SDS011;2674;49.722;10.892;2023-05-07T07:58:25;6.00;;;5.40;;
5303;SDS011;2674;49.722;10.892;2023-05-07T08:00:51;6.47;;;5.87;;
5303;SDS011;2674;49.722;10.892;2023-05-07T08:03:17;6.40;;;5.80;;
5303;SDS011;2674;49.722;10.892;2023-05-07T08:05:43;7.47;;;6.60;;
5303;SDS011;2674;49.722;10.892;2023-05-07T08:08:08;7.10;;;6.40;;
5303;SDS011;2674;49.722;10.892;2023-05-07T08:10:34;8.77;;;5.43;;
5303;SDS011;2674;49.722;10.892;2023-05-07T08:13:03;6.90;;;6.30;;
5303;SDS011;2674;49.722;10.892;2023-05-07T08:15:29;5.53;;;4.90;;
5303;SDS011;2674;49.722;10.892;2023-05-07T08:17:55;7.33;;;6.30;;
5303;SDS011;2674;49.722;10.892;2023-05-07T08:20:22;7.87;;;6.40;;
5303;SDS011;2674;49.722;10.892;2023-05-07T08:22:48;8.30;;;6.40;;
5303;SDS011;2674;49.722;10.892;2023-05-07T08:25:16;6.60;;;5.37;;
5303;SDS011;2674;49.722;10.892;2023-05-07T08:27:42;8.13;;;6.50;;
5303;SDS011;2674;49.722;10.892;2023-05-07T08:30:09;7.20;;;5.47;;
5303;SDS011;2674;49.722;10.892;2023-05-07T08:32:35;5.67;;;5.17;;
5303;SDS011;2674;49.722;10.892;2023-05-07T08:35:01;73.27;;;30.33;;
5303;SDS011;2674;49.722;10.892;2023-05-07T08:37:27;30.67;;;14.73;;
5303;SDS011;2674;49.722;10.892;2023-05-07T08:39:53;46.07;;;21.40;;
5303;SDS011;2674;49.722;10.892;2023-05-07T08:42:19;8.20;;;6.30;;
5303;SDS011;2674;49.722;10.892;2023-05-07T08:44:48;6.73;;;6.03;;
5303;SDS011;2674;49.722;10.892;2023-05-07T08:47:20;10.73;;;6.20;;
5303;SDS011;2674;49.722;10.892;2023-05-07T08:49:51;7.73;;;7.00;;
5303;SDS011;2674;49.722;10.892;2023-05-07T08:52:18;6.50;;;5.90;;
5303;SDS011;2674;49.722;10.892;2023-05-07T08:54:45;7.90;;;5.47;;
5303;SDS011;2674;49.722;10.892;2023-05-07T08:57:10;5.97;;;5.37;;
5303;SDS011;2674;49.722;10.892;2023-05-07T08:59:36;6.37;;;5.60;;
5303;SDS011;2674;49.722;10.892;2023-05-07T09:02:08;7.30;;;6.17;;
5303;SDS011;2674;49.722;10.892;2023-05-07T09:04:36;8.00;;;5.73;;
5303;SDS011;2674;49.722;10.892;2023-05-07T09:07:02;6.90;;;6.20;;
5303;SDS011;2674;49.722;10.892;2023-05-07T09:09:31;7.63;;;6.30;;
5303;SDS011;2674;49.722;10.892;2023-05-07T09:11:58;8.83;;;7.93;;
5303;SDS011;2674;49.722;10.892;2023-05-07T09:14:24;13.37;;;11.37;;
5303;SDS011;2674;49.722;10.892;2023-05-07T09:16:54;7.30;;;6.60;;
5303;SDS011;2674;49.722;10.892;2023-05-07T09:19:23;10.80;;;9.10;;
5303;SDS011;2674;49.722;10.892;2023-05-07T09:21:49;13.10;;;11.73;;
5303;SDS011;2674;49.722;10.892;2023-05-07T09:24:22;9.90;;;8.47;;
5303;SDS011;2674;49.722;10.892;2023-05-07T09:26:48;7.47;;;6.77;;
5303;SDS011;2674;49.722;10.892;2023-05-07T09:29:15;5.20;;;4.70;;
5303;SDS011;2674;49.722;10.892;2023-05-07T09:31:42;6.97;;;6.30;;
5303;SDS011;2674;49.722;10.892;2023-05-07T09:34:08;5.50;;;5.00;;
5303;SDS011;2674;49.722;10.892;2023-05-07T09:36:33;6.73;;;5.43;;
5303;SDS011;2674;49.722;10.892;2023-05-07T09:39:00;5.30;;;4.13;;
5303;SDS011;2674;49.722;10.892;2023-05-07T09:41:26;4.50;;;4.10;;
5303;SDS011;2674;49.722;10.892;2023-05-07T09:43:55;5.73;;;4.50;;
5303;SDS011;2674;49.722;10.892;2023-05-07T09:46:23;8.70;;;5.10;;
5303;SDS011;2674;49.722;10.892;2023-05-07T09:48:53;9.27;;;7.80;;
5303;SDS011;2674;49.722;10.892;2023-05-07T09:51:30;35.47;;;22.67;;
5303;SDS011;2674;49.722;10.892;2023-05-07T09:54:07;18.80;;;13.67;;
5303;SDS011;2674;49.722;10.892;2023-05-07T09:56:35;23.27;;;15.90;;
5303;SDS011;2674;49.722;10.892;2023-05-07T09:59:02;18.53;;;13.20;;
5303;SDS011;2674;49.722;10.892;2023-05-07T10:01:31;15.37;;;12.20;;
5303;SDS011;2674;49.722;10.892;2023-05-07T10:03:57;18.93;;;14.03;;
5303;SDS011;2674;49.722;10.892;2023-05-07T10:06:24;26.60;;;16.70;;
5303;SDS011;2674;49.722;10.892;2023-05-07T10:08:51;26.60;;;18.27;;
5303;SDS011;2674;49.722;10.892;2023-05-07T10:11:18;8.27;;;6.60;;
5303;SDS011;2674;49.722;10.892;2023-05-07T10:13:44;27.00;;;17.00;;
5303;SDS011;2674;49.722;10.892;2023-05-07T10:16:12;36.20;;;23.53;;
5303;SDS011;2674;49.722;10.892;2023-05-07T10:18:40;14.63;;;6.73;;
5303;SDS011;2674;49.722;10.892;2023-05-07T10:21:19;5.83;;;4.67;;
5303;SDS011;2674;49.722;10.892;2023-05-07T10:23:50;4.60;;;4.13;;
5303;SDS011;2674;49.722;10.892;2023-05-07T10:26:18;4.60;;;3.67;;
5303;SDS011;2674;49.722;10.892;2023-05-07T10:28:47;3.90;;;3.60;;
5303;SDS011;2674;49.722;10.892;2023-05-07T10:34:09;3.80;;;2.70;;
5303;SDS011;2674;49.722;10.892;2023-05-07T10:36:40;3.03;;;2.40;;
5303;SDS011;2674;49.722;10.892;2023-05-07T10:39:07;3.63;;;3.33;;
5303;SDS011;2674;49.722;10.892;2023-05-07T10:41:33;7.87;;;3.10;;
5303;SDS011;2674;49.722;10.892;2023-05-07T10:43:59;7.13;;;3.93;;
5303;SDS011;2674;49.722;10.892;2023-05-07T10:46:27;5.70;;;5.20;;
5303;SDS011;2674;49.722;10.892;2023-05-07T10:51:29;5.63;;;3.87;;
5303;SDS011;2674;49.722;10.892;2023-05-07T11:01:58;3.10;;;2.80;;
5303;SDS011;2674;49.722;10.892;2023-05-07T11:04:28;3.10;;;2.80;;
5303;SDS011;2674;49.722;10.892;2023-05-07T11:25:41;3.37;;;2.30;;
5303;SDS011;2674;49.722;10.892;2023-05-07T11:28:07;2.77;;;2.57;;
5303;SDS011;2674;49.722;10.892;2023-05-07T11:30:35;2.70;;;2.20;;
5303;SDS011;2674;49.722;10.892;2023-05-07T11:33:01;2.30;;;2.10;;
5303;SDS011;2674;49.722;10.892;2023-05-07T11:35:27;3.23;;;2.33;;
5303;SDS011;2674;49.722;10.892;2023-05-07T11:37:58;2.37;;;2.20;;
5303;SDS011;2674;49.722;10.892;2023-05-07T11:40:25;2.20;;;2.10;;
5303;SDS011;2674;49.722;10.892;2023-05-07T11:42:51;2.97;;;2.20;;
5303;SDS011;2674;49.722;10.892;2023-05-07T11:45:22;3.60;;;2.63;;
5303;SDS011;2674;49.722;10.892;2023-05-07T11:47:54;2.57;;;2.37;;
5303;SDS011;2674;49.722;10.892;2023-05-07T11:50:20;4.00;;;2.60;;
5303;SDS011;2674;49.722;10.892;2023-05-07T11:52:50;2.70;;;2.40;;
5303;SDS011;2674;49.722;10.892;2023-05-07T11:55:18;2.87;;;2.67;;
5303;SDS011;2674;49.722;10.892;2023-05-07T11:57:44;2.67;;;2.47;;
5303;SDS011;2674;49.722;10.892;2023-05-07T12:00:10;3.23;;;2.27;;
5303;SDS011;2674;49.722;10.892;2023-05-07T12:02:36;1.77;;;1.67;;
5303;SDS011;2674;49.722;10.892;2023-05-07T12:05:02;2.57;;;1.67;;
5303;SDS011;2674;49.722;10.892;2023-05-07T12:07:28;2.23;;;2.13;;
5303;SDS011;2674;49.722;10.892;2023-05-07T12:09:54;2.00;;;1.90;;
5303;SDS011;2674;49.722;10.892;2023-05-07T12:12:20;3.60;;;1.80;;
5303;SDS011;2674;49.722;10.892;2023-05-07T12:14:46;2.80;;;2.37;;
5303;SDS011;2674;49.722;10.892;2023-05-07T12:17:13;4.07;;;2.30;;
5303;SDS011;2674;49.722;10.892;2023-05-07T12:19:41;2.80;;;2.50;;
5303;SDS011;2674;49.722;10.892;2023-05-07T12:22:08;5.77;;;3.07;;
5303;SDS011;2674;49.722;10.892;2023-05-07T12:24:45;2.67;;;2.47;;
5303;SDS011;2674;49.722;10.892;2023-05-07T12:27:32;2.33;;;2.10;;
5303;SDS011;2674;49.722;10.892;2023-05-07T12:30:01;3.00;;;2.70;;
5303;SDS011;2674;49.722;10.892;2023-05-07T12:32:27;2.30;;;2.20;;
5303;SDS011;2674;49.722;10.892;2023-05-07T12:34:53;2.63;;;2.43;;
5303;SDS011;2674;49.722;10.892;2023-05-07T12:37:23;2.73;;;2.33;;
5303;SDS011;2674;49.722;10.892;2023-05-07T12:40:03;5.17;;;2.50;;
5303;SDS011;2674;49.722;10.892;2023-05-07T12:42:33;2.70;;;2.17;;
5303;SDS011;2674;49.722;10.892;2023-05-07T12:45:15;2.63;;;2.40;;
5303;SDS011;2674;49.722;10.892;2023-05-07T12:47:44;2.20;;;2.10;;
5303;SDS011;2674;49.722;10.892;2023-05-07T12:50:13;2.97;;;2.70;;
5303;SDS011;2674;49.722;10.892;2023-05-07T12:52:40;2.97;;;2.30;;
5303;SDS011;2674;49.722;10.892;2023-05-07T12:55:06;2.40;;;2.30;;
5303;SDS011;2674;49.722;10.892;2023-05-07T12:57:41;2.03;;;1.93;;
5303;SDS011;2674;49.722;10.892;2023-05-07T13:00:08;2.70;;;2.47;;
5303;SDS011;2674;49.722;10.892;2023-05-07T13:02:37;2.33;;;2.23;;
5303;SDS011;2674;49.722;10.892;2023-05-07T13:05:04;2.60;;;2.40;;
5303;SDS011;2674;49.722;10.892;2023-05-07T13:07:30;7.10;;;2.63;;
5303;SDS011;2674;49.722;10.892;2023-05-07T13:09:59;5.13;;;3.07;;
5303;SDS011;2674;49.722;10.892;2023-05-07T13:12:25;3.20;;;2.90;;
5303;SDS011;2674;49.722;10.892;2023-05-07T13:14:50;4.33;;;3.10;;
5303;SDS011;2674;49.722;10.892;2023-05-07T13:17:16;2.70;;;2.50;;
5303;SDS011;2674;49.722;10.892;2023-05-07T13:19:43;2.50;;;2.30;;
5303;SDS011;2674;49.722;10.892;2023-05-07T13:22:09;2.40;;;2.30;;
5303;SDS011;2674;49.722;10.892;2023-05-07T13:24:35;2.60;;;2.40;;
5303;SDS011;2674;49.722;10.892;2023-05-07T13:27:01;3.00;;;2.70;;
5303;SDS011;2674;49.722;10.892;2023-05-07T13:29:28;5.40;;;3.00;;
5303;SDS011;2674;49.722;10.892;2023-05-07T13:31:58;3.60;;;2.93;;
5303;SDS011;2674;49.722;10.892;2023-05-07T13:34:25;2.80;;;2.60;;
5303;SDS011;2674;49.722;10.892;2023-05-07T13:36:51;3.80;;;2.33;;
5303;SDS011;2674;49.722;10.892;2023-05-07T13:39:17;5.33;;;2.50;;
5303;SDS011;2674;49.722;10.892;2023-05-07T13:41:45;3.70;;;3.27;;
5303;SDS011;2674;49.722;10.892;2023-05-07T13:44:11;5.00;;;2.50;;
5303;SDS011;2674;49.722;10.892;2023-05-07T13:46:37;3.23;;;2.90;;
5303;SDS011;2674;49.722;10.892;2023-05-07T13:49:03;2.50;;;2.33;;
5303;SDS011;2674;49.722;10.892;2023-05-07T13:51:28;3.00;;;2.70;;
5303;SDS011;2674;49.722;10.892;2023-05-07T13:53:54;3.20;;;2.90;;
5303;SDS011;2674;49.722;10.892;2023-05-07T13:56:23;3.20;;;3.00;;
5303;SDS011;2674;49.722;10.892;2023-05-07T13:58:49;5.70;;;3.33;;
5303;SDS011;2674;49.722;10.892;2023-05-07T14:01:15;2.70;;;2.50;;
5303;SDS011;2674;49.722;10.892;2023-05-07T14:03:40;2.60;;;2.40;;
5303;SDS011;2674;49.722;10.892;2023-05-07T14:06:06;3.40;;;3.10;;
5303;SDS011;2674;49.722;10.892;2023-05-07T14:08:32;2.47;;;2.27;;
5303;SDS011;2674;49.722;10.892;2023-05-07T14:10:58;4.70;;;3.10;;
5303;SDS011;2674;49.722;10.892;2023-05-07T14:13:25;3.40;;;3.10;;
5303;SDS011;2674;49.722;10.892;2023-05-07T14:15:51;2.73;;;2.53;;
5303;SDS011;2674;49.722;10.892;2023-05-07T14:18:18;3.80;;;3.10;;
5303;SDS011;2674;49.722;10.892;2023-05-07T14:20:46;3.40;;;3.10;;
5303;SDS011;2674;49.722;10.892;2023-05-07T14:23:13;2.60;;;2.50;;
5303;SDS011;2674;49.722;10.892;2023-05-07T14:25:44;2.80;;;2.60;;
5303;SDS011;2674;49.722;10.892;2023-05-07T14:28:12;5.63;;;3.43;;
5303;SDS011;2674;49.722;10.892;2023-05-07T14:30:38;4.13;;;2.80;;
5303;SDS011;2674;49.722;10.892;2023-05-07T14:33:04;3.30;;;3.00;;
5303;SDS011;2674;49.722;10.892;2023-05-07T14:35:30;4.33;;;3.27;;
5303;SDS011;2674;49.722;10.892;2023-05-07T14:37:56;4.10;;;2.90;;
5303;SDS011;2674;49.722;10.892;2023-05-07T14:40:21;3.93;;;2.83;;
5303;SDS011;2674;49.722;10.892;2023-05-07T14:42:47;3.00;;;2.80;;
5303;SDS011;2674;49.722;10.892;2023-05-07T14:45:13;2.77;;;2.57;;
5303;SDS011;2674;49.722;10.892;2023-05-07T14:47:39;3.73;;;3.43;;
5303;SDS011;2674;49.722;10.892;2023-05-07T14:50:05;2.50;;;2.30;;
5303;SDS011;2674;49.722;10.892;2023-05-07T14:52:31;3.33;;;3.13;;
5303;SDS011;2674;49.722;10.892;2023-05-07T14:54:56;3.00;;;2.80;;
5303;SDS011;2674;49.722;10.892;2023-05-07T14:57:22;3.40;;;3.20;;
5303;SDS011;2674;49.722;10.892;2023-05-07T14:59:48;5.00;;;3.20;;
5303;SDS011;2674;49.722;10.892;2023-05-07T15:02:14;3.30;;;2.97;;
5303;SDS011;2674;49.722;10.892;2023-05-07T15:04:40;3.37;;;3.10;;
5303;SDS011;2674;49.722;10.892;2023-05-07T15:07:14;2.23;;;2.13;;
5303;SDS011;2674;49.722;10.892;2023-05-07T15:09:43;2.60;;;2.50;;
5303;SDS011;2674;49.722;10.892;2023-05-07T15:12:10;2.47;;;2.37;;
5303;SDS011;2674;49.722;10.892;2023-05-07T15:14:37;2.73;;;2.53;;
5303;SDS011;2674;49.722;10.892;2023-05-07T15:17:03;3.10;;;2.90;;
5303;SDS011;2674;49.722;10.892;2023-05-07T15:19:29;2.90;;;2.50;;
5303;SDS011;2674;49.722;10.892;2023-05-07T15:21:56;2.80;;;2.60;;
5303;SDS011;2674;49.722;10.892;2023-05-07T15:24:23;2.93;;;2.70;;
5303;SDS011;2674;49.722;10.892;2023-05-07T15:26:52;7.23;;;2.43;;
5303;SDS011;2674;49.722;10.892;2023-05-07T15:29:17;4.70;;;2.70;;